sensor_id;sensor_type;location;lat;lon;timestamp;temperature;humidity
15239;DHT22;7722;53.274;9.500;2022-08-30T00:00:06;13.80;99.90
15239;DHT22;7722;53.274;9.500;2022-08-30T00:02:51;13.90;99.90
15239;DHT22;7722;53.274;9.500;2022-08-30T00:05:19;14.00;99.90
15239;DHT22;7722;53.274;9.500;2022-08-30T00:07:46;14.10;99.90
15239;DHT22;7722;53.274;9.500;2022-08-30T00:10:13;14.10;99.90
15239;DHT22;7722;53.274;9.500;2022-08-30T00:12:40;14.10;99.90
15239;DHT22;7722;53.274;9.500;2022-08-30T00:15:09;14.10;99.90
15239;DHT22;7722;53.274;9.500;2022-08-30T00:17:36;14.20;99.90
15239;DHT22;7722;53.274;9.500;2022-08-30T00:20:05;14.20;99.90
15239;DHT22;7722;53.274;9.500;2022-08-30T00:22:34;14.20;99.90
15239;DHT22;7722;53.274;9.500;2022-08-30T00:25:01;14.20;99.90
15239;DHT22;7722;53.274;9.500;2022-08-30T00:27:28;14.10;99.90
15239;DHT22;7722;53.274;9.500;2022-08-30T00:29:55;14.10;99.90
15239;DHT22;7722;53.274;9.500;2022-08-30T00:32:23;14.10;99.90
15239;DHT22;7722;53.274;9.500;2022-08-30T00:34:51;14.10;99.90
15239;DHT22;7722;53.274;9.500;2022-08-30T00:37:18;14.10;99.90
15239;DHT22;7722;53.274;9.500;2022-08-30T00:39:47;14.10;99.90
15239;DHT22;7722;53.274;9.500;2022-08-30T00:42:14;14.30;99.90
15239;DHT22;7722;53.274;9.500;2022-08-30T00:44:42;14.20;99.90
15239;DHT22;7722;53.274;9.500;2022-08-30T00:47:10;14.30;99.90
15239;DHT22;7722;53.274;9.500;2022-08-30T00:49:39;14.30;99.90
15239;DHT22;7722;53.274;9.500;2022-08-30T00:52:07;14.20;99.90
15239;DHT22;7722;53.274;9.500;2022-08-30T00:54:39;14.30;99.90
15239;DHT22;7722;53.274;9.500;2022-08-30T00:57:09;14.30;99.90
15239;DHT22;7722;53.274;9.500;2022-08-30T00:59:37;14.40;99.90
15239;DHT22;7722;53.274;9.500;2022-08-30T01:02:05;14.40;99.90
15239;DHT22;7722;53.274;9.500;2022-08-30T01:04:33;14.50;99.90
15239;DHT22;7722;53.274;9.500;2022-08-30T01:07:00;14.50;99.90
15239;DHT22;7722;53.274;9.500;2022-08-30T01:09:27;14.50;99.90
15239;DHT22;7722;53.274;9.500;2022-08-30T01:11:55;14.60;99.90
15239;DHT22;7722;53.274;9.500;2022-08-30T01:14:23;14.60;99.90
15239;DHT22;7722;53.274;9.500;2022-08-30T01:16:50;14.60;99.90
15239;DHT22;7722;53.274;9.500;2022-08-30T01:19:25;14.60;99.90
15239;DHT22;7722;53.274;9.500;2022-08-30T01:21:58;14.50;99.90
15239;DHT22;7722;53.274;9.500;2022-08-30T01:24:28;14.60;99.90
15239;DHT22;7722;53.274;9.500;2022-08-30T01:26:56;14.60;99.90
15239;DHT22;7722;53.274;9.500;2022-08-30T01:29:25;14.60;99.90
15239;DHT22;7722;53.274;9.500;2022-08-30T01:31:52;14.60;99.90
15239;DHT22;7722;53.274;9.500;2022-08-30T01:34:19;14.70;99.90
15239;DHT22;7722;53.274;9.500;2022-08-30T01:36:47;14.70;99.90
15239;DHT22;7722;53.274;9.500;2022-08-30T01:39:16;14.60;99.90
15239;DHT22;7722;53.274;9.500;2022-08-30T01:41:45;14.70;99.90
15239;DHT22;7722;53.274;9.500;2022-08-30T01:44:13;14.80;99.90
15239;DHT22;7722;53.274;9.500;2022-08-30T01:46:43;14.80;99.90
15239;DHT22;7722;53.274;9.500;2022-08-30T01:49:14;14.80;99.90
15239;DHT22;7722;53.274;9.500;2022-08-30T01:51:42;14.80;99.90
15239;DHT22;7722;53.274;9.500;2022-08-30T01:54:09;14.80;99.90
15239;DHT22;7722;53.274;9.500;2022-08-30T01:56:36;14.80;99.90
15239;DHT22;7722;53.274;9.500;2022-08-30T01:59:05;14.80;99.90
15239;DHT22;7722;53.274;9.500;2022-08-30T02:01:34;14.80;99.90
15239;DHT22;7722;53.274;9.500;2022-08-30T02:04:02;14.90;99.90
15239;DHT22;7722;53.274;9.500;2022-08-30T02:06:29;14.80;99.90
15239;DHT22;7722;53.274;9.500;2022-08-30T02:08:56;14.80;99.90
15239;DHT22;7722;53.274;9.500;2022-08-30T02:11:24;14.80;99.90
15239;DHT22;7722;53.274;9.500;2022-08-30T02:13:51;14.80;99.90
15239;DHT22;7722;53.274;9.500;2022-08-30T02:16:21;14.80;99.90
15239;DHT22;7722;53.274;9.500;2022-08-30T02:18:49;14.80;99.90
15239;DHT22;7722;53.274;9.500;2022-08-30T02:21:16;14.90;99.90
15239;DHT22;7722;53.274;9.500;2022-08-30T02:23:43;14.90;99.90
15239;DHT22;7722;53.274;9.500;2022-08-30T02:26:11;15.00;99.90
15239;DHT22;7722;53.274;9.500;2022-08-30T02:28:39;14.90;99.90
15239;DHT22;7722;53.274;9.500;2022-08-30T02:31:06;14.90;99.90
15239;DHT22;7722;53.274;9.500;2022-08-30T02:33:34;15.00;99.90
15239;DHT22;7722;53.274;9.500;2022-08-30T02:36:02;15.00;99.90
15239;DHT22;7722;53.274;9.500;2022-08-30T02:38:30;15.00;99.90
15239;DHT22;7722;53.274;9.500;2022-08-30T02:40:57;14.90;99.90
15239;DHT22;7722;53.274;9.500;2022-08-30T02:43:24;14.80;99.90
15239;DHT22;7722;53.274;9.500;2022-08-30T02:45:52;14.90;99.90
15239;DHT22;7722;53.274;9.500;2022-08-30T02:48:20;14.90;99.90
15239;DHT22;7722;53.274;9.500;2022-08-30T02:50:50;14.90;99.90
15239;DHT22;7722;53.274;9.500;2022-08-30T02:53:18;14.90;99.90
15239;DHT22;7722;53.274;9.500;2022-08-30T02:55:46;15.00;99.90
15239;DHT22;7722;53.274;9.500;2022-08-30T02:58:13;15.00;99.90
15239;DHT22;7722;53.274;9.500;2022-08-30T03:00:41;15.10;99.90
15239;DHT22;7722;53.274;9.500;2022-08-30T03:03:07;15.20;99.90
15239;DHT22;7722;53.274;9.500;2022-08-30T03:05:34;15.20;99.90
15239;DHT22;7722;53.274;9.500;2022-08-30T03:08:03;15.20;99.90
15239;DHT22;7722;53.274;9.500;2022-08-30T03:10:30;15.30;99.90
15239;DHT22;7722;53.274;9.500;2022-08-30T03:12:57;15.30;99.90
15239;DHT22;7722;53.274;9.500;2022-08-30T03:15:25;15.20;99.90
15239;DHT22;7722;53.274;9.500;2022-08-30T03:17:53;15.30;99.90
15239;DHT22;7722;53.274;9.500;2022-08-30T03:20:21;15.30;99.90
15239;DHT22;7722;53.274;9.500;2022-08-30T03:22:48;15.30;99.90
15239;DHT22;7722;53.274;9.500;2022-08-30T03:25:16;15.30;99.90
15239;DHT22;7722;53.274;9.500;2022-08-30T03:27:45;15.40;99.90
15239;DHT22;7722;53.274;9.500;2022-08-30T03:30:12;15.40;99.90
15239;DHT22;7722;53.274;9.500;2022-08-30T03:32:41;15.40;99.90
15239;DHT22;7722;53.274;9.500;2022-08-30T03:35:09;15.30;99.90
15239;DHT22;7722;53.274;9.500;2022-08-30T03:37:36;15.20;99.90
15239;DHT22;7722;53.274;9.500;2022-08-30T03:40:04;15.20;99.90
15239;DHT22;7722;53.274;9.500;2022-08-30T03:42:33;15.30;99.90
15239;DHT22;7722;53.274;9.500;2022-08-30T03:45:00;15.40;99.90
15239;DHT22;7722;53.274;9.500;2022-08-30T03:47:28;15.40;99.90
15239;DHT22;7722;53.274;9.500;2022-08-30T03:49:55;15.40;99.90
15239;DHT22;7722;53.274;9.500;2022-08-30T03:52:22;15.40;99.90
15239;DHT22;7722;53.274;9.500;2022-08-30T03:54:49;15.40;99.90
15239;DHT22;7722;53.274;9.500;2022-08-30T03:57:16;15.40;99.90
15239;DHT22;7722;53.274;9.500;2022-08-30T03:59:45;15.40;99.90
15239;DHT22;7722;53.274;9.500;2022-08-30T04:02:12;15.50;99.90
15239;DHT22;7722;53.274;9.500;2022-08-30T04:04:39;15.50;99.90
15239;DHT22;7722;53.274;9.500;2022-08-30T04:07:06;15.60;99.90
15239;DHT22;7722;53.274;9.500;2022-08-30T04:09:33;15.40;99.90
15239;DHT22;7722;53.274;9.500;2022-08-30T04:12:01;15.30;99.90
15239;DHT22;7722;53.274;9.500;2022-08-30T04:14:28;15.30;99.90
15239;DHT22;7722;53.274;9.500;2022-08-30T04:16:56;15.40;99.90
15239;DHT22;7722;53.274;9.500;2022-08-30T04:19:23;15.40;99.90
15239;DHT22;7722;53.274;9.500;2022-08-30T04:21:50;15.30;99.90
15239;DHT22;7722;53.274;9.500;2022-08-30T04:24:17;15.40;99.90
15239;DHT22;7722;53.274;9.500;2022-08-30T04:26:44;15.30;99.90
15239;DHT22;7722;53.274;9.500;2022-08-30T04:29:11;15.30;99.90
15239;DHT22;7722;53.274;9.500;2022-08-30T04:31:41;15.30;99.90
15239;DHT22;7722;53.274;9.500;2022-08-30T04:34:10;15.20;99.90
15239;DHT22;7722;53.274;9.500;2022-08-30T04:36:37;15.20;99.90
15239;DHT22;7722;53.274;9.500;2022-08-30T04:39:05;15.20;99.90
15239;DHT22;7722;53.274;9.500;2022-08-30T04:41:32;15.30;99.90
15239;DHT22;7722;53.274;9.500;2022-08-30T04:44:00;15.30;99.90
15239;DHT22;7722;53.274;9.500;2022-08-30T04:46:28;15.20;99.90
15239;DHT22;7722;53.274;9.500;2022-08-30T04:48:55;15.10;99.90
15239;DHT22;7722;53.274;9.500;2022-08-30T04:51:24;15.10;99.90
15239;DHT22;7722;53.274;9.500;2022-08-30T04:53:50;15.10;99.90
15239;DHT22;7722;53.274;9.500;2022-08-30T04:56:19;15.10;99.90
15239;DHT22;7722;53.274;9.500;2022-08-30T04:58:49;15.10;99.90
15239;DHT22;7722;53.274;9.500;2022-08-30T05:01:17;15.20;99.90
15239;DHT22;7722;53.274;9.500;2022-08-30T05:03:45;15.20;99.90
15239;DHT22;7722;53.274;9.500;2022-08-30T05:06:13;15.10;99.90
15239;DHT22;7722;53.274;9.500;2022-08-30T05:08:41;15.10;99.90
15239;DHT22;7722;53.274;9.500;2022-08-30T05:11:08;15.20;99.90
15239;DHT22;7722;53.274;9.500;2022-08-30T05:13:36;15.20;99.90
15239;DHT22;7722;53.274;9.500;2022-08-30T05:16:05;15.20;99.90
15239;DHT22;7722;53.274;9.500;2022-08-30T05:18:32;15.20;99.90
15239;DHT22;7722;53.274;9.500;2022-08-30T05:21:04;15.20;99.90
15239;DHT22;7722;53.274;9.500;2022-08-30T05:23:31;15.20;99.90
15239;DHT22;7722;53.274;9.500;2022-08-30T05:26:03;15.30;99.90
15239;DHT22;7722;53.274;9.500;2022-08-30T05:28:32;15.30;99.90
15239;DHT22;7722;53.274;9.500;2022-08-30T05:30:59;15.40;99.90
15239;DHT22;7722;53.274;9.500;2022-08-30T05:33:26;15.40;99.90
15239;DHT22;7722;53.274;9.500;2022-08-30T05:35:53;15.50;99.90
15239;DHT22;7722;53.274;9.500;2022-08-30T05:38:20;15.50;99.90
15239;DHT22;7722;53.274;9.500;2022-08-30T05:40:47;15.40;99.90
15239;DHT22;7722;53.274;9.500;2022-08-30T05:43:16;15.40;99.90
15239;DHT22;7722;53.274;9.500;2022-08-30T05:45:42;15.30;99.90
15239;DHT22;7722;53.274;9.500;2022-08-30T05:48:09;15.40;99.90
15239;DHT22;7722;53.274;9.500;2022-08-30T05:50:36;15.40;99.90
15239;DHT22;7722;53.274;9.500;2022-08-30T05:53:03;15.50;99.90
15239;DHT22;7722;53.274;9.500;2022-08-30T05:55:30;15.60;99.90
15239;DHT22;7722;53.274;9.500;2022-08-30T05:57:57;15.70;99.90
15239;DHT22;7722;53.274;9.500;2022-08-30T06:00:26;15.80;99.90
15239;DHT22;7722;53.274;9.500;2022-08-30T06:02:55;16.00;99.90
15239;DHT22;7722;53.274;9.500;2022-08-30T06:05:22;16.10;99.90
15239;DHT22;7722;53.274;9.500;2022-08-30T06:07:49;16.20;99.90
15239;DHT22;7722;53.274;9.500;2022-08-30T06:10:16;16.20;99.90
15239;DHT22;7722;53.274;9.500;2022-08-30T06:12:43;16.20;99.90
15239;DHT22;7722;53.274;9.500;2022-08-30T06:15:10;16.10;99.90
15239;DHT22;7722;53.274;9.500;2022-08-30T06:17:39;16.10;99.90
15239;DHT22;7722;53.274;9.500;2022-08-30T06:20:07;16.20;99.90
15239;DHT22;7722;53.274;9.500;2022-08-30T06:22:34;16.50;99.90
15239;DHT22;7722;53.274;9.500;2022-08-30T06:25:03;16.60;99.90
15239;DHT22;7722;53.274;9.500;2022-08-30T06:27:30;16.70;99.90
15239;DHT22;7722;53.274;9.500;2022-08-30T06:29:58;16.80;99.90
15239;DHT22;7722;53.274;9.500;2022-08-30T06:32:25;16.80;99.90
15239;DHT22;7722;53.274;9.500;2022-08-30T06:34:53;16.70;99.90
15239;DHT22;7722;53.274;9.500;2022-08-30T06:37:20;16.70;99.90
15239;DHT22;7722;53.274;9.500;2022-08-30T06:39:47;16.70;99.90
15239;DHT22;7722;53.274;9.500;2022-08-30T06:42:14;16.80;99.90
15239;DHT22;7722;53.274;9.500;2022-08-30T06:44:41;16.90;99.90
15239;DHT22;7722;53.274;9.500;2022-08-30T06:47:09;17.30;99.90
15239;DHT22;7722;53.274;9.500;2022-08-30T06:49:36;17.50;99.90
15239;DHT22;7722;53.274;9.500;2022-08-30T06:52:05;17.60;99.90
15239;DHT22;7722;53.274;9.500;2022-08-30T06:54:32;17.80;99.90
15239;DHT22;7722;53.274;9.500;2022-08-30T06:56:58;17.80;99.90
15239;DHT22;7722;53.274;9.500;2022-08-30T06:59:26;17.80;99.90
15239;DHT22;7722;53.274;9.500;2022-08-30T07:01:53;17.50;99.90
15239;DHT22;7722;53.274;9.500;2022-08-30T07:04:20;17.50;99.90
15239;DHT22;7722;53.274;9.500;2022-08-30T07:06:47;17.70;99.90
15239;DHT22;7722;53.274;9.500;2022-08-30T07:09:15;17.70;99.90
15239;DHT22;7722;53.274;9.500;2022-08-30T07:11:43;17.50;99.90
15239;DHT22;7722;53.274;9.500;2022-08-30T07:14:10;17.50;99.90
15239;DHT22;7722;53.274;9.500;2022-08-30T07:16:37;17.70;99.90
15239;DHT22;7722;53.274;9.500;2022-08-30T07:19:05;17.70;99.90
15239;DHT22;7722;53.274;9.500;2022-08-30T07:21:36;17.70;99.90
15239;DHT22;7722;53.274;9.500;2022-08-30T07:24:05;17.80;99.90
15239;DHT22;7722;53.274;9.500;2022-08-30T07:26:36;17.90;99.90
15239;DHT22;7722;53.274;9.500;2022-08-30T07:29:04;17.90;99.90
15239;DHT22;7722;53.274;9.500;2022-08-30T07:31:31;17.80;99.90
15239;DHT22;7722;53.274;9.500;2022-08-30T07:33:59;17.80;99.90
15239;DHT22;7722;53.274;9.500;2022-08-30T07:36:26;17.80;99.90
15239;DHT22;7722;53.274;9.500;2022-08-30T07:38:53;17.90;99.90
15239;DHT22;7722;53.274;9.500;2022-08-30T07:41:22;17.90;99.90
15239;DHT22;7722;53.274;9.500;2022-08-30T07:43:51;18.00;99.90
15239;DHT22;7722;53.274;9.500;2022-08-30T07:46:19;18.20;99.90
15239;DHT22;7722;53.274;9.500;2022-08-30T07:48:46;18.10;99.90
15239;DHT22;7722;53.274;9.500;2022-08-30T07:51:16;18.00;99.90
15239;DHT22;7722;53.274;9.500;2022-08-30T07:53:44;17.90;99.90
15239;DHT22;7722;53.274;9.500;2022-08-30T07:56:11;18.00;99.90
15239;DHT22;7722;53.274;9.500;2022-08-30T07:58:38;18.20;99.90
15239;DHT22;7722;53.274;9.500;2022-08-30T08:01:09;18.10;99.90
15239;DHT22;7722;53.274;9.500;2022-08-30T08:03:37;18.10;99.90
15239;DHT22;7722;53.274;9.500;2022-08-30T08:06:06;18.20;99.90
15239;DHT22;7722;53.274;9.500;2022-08-30T08:08:36;18.40;99.90
15239;DHT22;7722;53.274;9.500;2022-08-30T08:11:07;18.20;99.90
15239;DHT22;7722;53.274;9.500;2022-08-30T08:13:34;18.40;99.90
15239;DHT22;7722;53.274;9.500;2022-08-30T08:16:02;18.40;99.90
15239;DHT22;7722;53.274;9.500;2022-08-30T08:18:30;18.40;99.90
15239;DHT22;7722;53.274;9.500;2022-08-30T08:20:59;18.70;99.90
15239;DHT22;7722;53.274;9.500;2022-08-30T08:23:26;18.80;99.90
15239;DHT22;7722;53.274;9.500;2022-08-30T08:25:54;18.90;99.90
15239;DHT22;7722;53.274;9.500;2022-08-30T08:28:21;18.90;99.90
15239;DHT22;7722;53.274;9.500;2022-08-30T08:30:48;19.10;99.90
15239;DHT22;7722;53.274;9.500;2022-08-30T08:33:16;19.10;99.90
15239;DHT22;7722;53.274;9.500;2022-08-30T08:35:44;19.10;99.90
15239;DHT22;7722;53.274;9.500;2022-08-30T08:38:11;19.40;99.90
15239;DHT22;7722;53.274;9.500;2022-08-30T08:40:55;19.50;99.90
15239;DHT22;7722;53.274;9.500;2022-08-30T08:43:25;19.50;99.90
15239;DHT22;7722;53.274;9.500;2022-08-30T08:45:56;19.70;99.90
15239;DHT22;7722;53.274;9.500;2022-08-30T08:48:31;20.00;99.90
15239;DHT22;7722;53.274;9.500;2022-08-30T08:51:01;20.00;99.90
15239;DHT22;7722;53.274;9.500;2022-08-30T08:53:50;19.70;99.90
15239;DHT22;7722;53.274;9.500;2022-08-30T08:56:19;19.70;99.90
15239;DHT22;7722;53.274;9.500;2022-08-30T08:58:48;19.80;99.90
15239;DHT22;7722;53.274;9.500;2022-08-30T09:01:19;19.80;99.90
15239;DHT22;7722;53.274;9.500;2022-08-30T09:03:47;19.70;99.90
15239;DHT22;7722;53.274;9.500;2022-08-30T09:06:25;19.50;99.90
15239;DHT22;7722;53.274;9.500;2022-08-30T09:08:53;19.40;99.90
15239;DHT22;7722;53.274;9.500;2022-08-30T09:11:22;19.70;99.90
15239;DHT22;7722;53.274;9.500;2022-08-30T09:13:51;19.80;99.90
15239;DHT22;7722;53.274;9.500;2022-08-30T09:19:31;19.60;99.90
15239;DHT22;7722;53.274;9.500;2022-08-30T09:22:02;19.80;99.90
15239;DHT22;7722;53.274;9.500;2022-08-30T09:24:37;20.10;99.90
15239;DHT22;7722;53.274;9.500;2022-08-30T09:27:19;20.20;99.90
15239;DHT22;7722;53.274;9.500;2022-08-30T09:29:59;20.60;99.90
15239;DHT22;7722;53.274;9.500;2022-08-30T09:32:36;20.50;99.90
15239;DHT22;7722;53.274;9.500;2022-08-30T09:35:05;20.90;99.90
15239;DHT22;7722;53.274;9.500;2022-08-30T09:37:38;21.30;99.90
15239;DHT22;7722;53.274;9.500;2022-08-30T09:40:12;21.20;99.90
15239;DHT22;7722;53.274;9.500;2022-08-30T09:42:40;21.40;99.90
15239;DHT22;7722;53.274;9.500;2022-08-30T09:45:18;21.50;99.90
15239;DHT22;7722;53.274;9.500;2022-08-30T09:47:45;21.80;99.90
15239;DHT22;7722;53.274;9.500;2022-08-30T09:50:14;21.70;99.90
15239;DHT22;7722;53.274;9.500;2022-08-30T09:52:50;21.30;99.90
15239;DHT22;7722;53.274;9.500;2022-08-30T09:55:37;21.40;99.90
15239;DHT22;7722;53.274;9.500;2022-08-30T09:58:09;21.50;99.90
15239;DHT22;7722;53.274;9.500;2022-08-30T10:00:42;20.60;99.90
15239;DHT22;7722;53.274;9.500;2022-08-30T10:03:22;20.70;99.90
15239;DHT22;7722;53.274;9.500;2022-08-30T10:05:56;20.60;99.90
15239;DHT22;7722;53.274;9.500;2022-08-30T10:08:32;20.80;99.90
15239;DHT22;7722;53.274;9.500;2022-08-30T10:11:03;21.40;99.90
15239;DHT22;7722;53.274;9.500;2022-08-30T10:13:46;22.10;99.90
15239;DHT22;7722;53.274;9.500;2022-08-30T10:16:25;22.80;99.90
15239;DHT22;7722;53.274;9.500;2022-08-30T10:19:01;22.80;99.90
15239;DHT22;7722;53.274;9.500;2022-08-30T10:21:35;22.60;99.90
15239;DHT22;7722;53.274;9.500;2022-08-30T10:24:07;22.00;99.90
15239;DHT22;7722;53.274;9.500;2022-08-30T10:26:38;21.90;99.90
15239;DHT22;7722;53.274;9.500;2022-08-30T10:29:10;21.90;99.90
15239;DHT22;7722;53.274;9.500;2022-08-30T10:31:43;21.80;99.90
15239;DHT22;7722;53.274;9.500;2022-08-30T10:34:16;21.90;99.90
15239;DHT22;7722;53.274;9.500;2022-08-30T10:36:47;21.80;99.90
15239;DHT22;7722;53.274;9.500;2022-08-30T10:39:20;21.50;99.90
15239;DHT22;7722;53.274;9.500;2022-08-30T10:41:49;21.80;99.90
15239;DHT22;7722;53.274;9.500;2022-08-30T10:44:22;22.00;99.90
15239;DHT22;7722;53.274;9.500;2022-08-30T10:47:01;21.50;99.90
15239;DHT22;7722;53.274;9.500;2022-08-30T10:49:34;21.00;99.90
15239;DHT22;7722;53.274;9.500;2022-08-30T10:52:12;21.10;99.90
15239;DHT22;7722;53.274;9.500;2022-08-30T10:54:48;21.40;99.90
15239;DHT22;7722;53.274;9.500;2022-08-30T10:57:16;21.60;99.90
15239;DHT22;7722;53.274;9.500;2022-08-30T10:59:47;22.30;99.90
15239;DHT22;7722;53.274;9.500;2022-08-30T11:02:29;22.10;99.90
15239;DHT22;7722;53.274;9.500;2022-08-30T11:05:29;22.10;99.90
15239;DHT22;7722;53.274;9.500;2022-08-30T11:08:05;22.60;99.90
15239;DHT22;7722;53.274;9.500;2022-08-30T11:10:44;23.40;99.90
15239;DHT22;7722;53.274;9.500;2022-08-30T11:13:16;23.20;99.90
15239;DHT22;7722;53.274;9.500;2022-08-30T11:15:56;22.90;99.90
15239;DHT22;7722;53.274;9.500;2022-08-30T11:18:25;23.30;99.90
15239;DHT22;7722;53.274;9.500;2022-08-30T11:21:15;23.30;98.50
15239;DHT22;7722;53.274;9.500;2022-08-30T11:23:57;23.40;97.20
15239;DHT22;7722;53.274;9.500;2022-08-30T11:29:37;22.70;97.90
15239;DHT22;7722;53.274;9.500;2022-08-30T11:32:24;23.30;98.00
15239;DHT22;7722;53.274;9.500;2022-08-30T11:34:58;23.80;97.20
15239;DHT22;7722;53.274;9.500;2022-08-30T11:37:38;24.30;96.60
15239;DHT22;7722;53.274;9.500;2022-08-30T11:40:09;23.90;96.30
15239;DHT22;7722;53.274;9.500;2022-08-30T11:42:39;23.40;96.40
15239;DHT22;7722;53.274;9.500;2022-08-30T11:45:46;23.00;96.80
15239;DHT22;7722;53.274;9.500;2022-08-30T11:48:47;22.90;97.10
15239;DHT22;7722;53.274;9.500;2022-08-30T11:51:47;22.40;97.80
15239;DHT22;7722;53.274;9.500;2022-08-30T11:54:30;22.00;98.10
15239;DHT22;7722;53.274;9.500;2022-08-30T11:57:05;21.80;99.10
15239;DHT22;7722;53.274;9.500;2022-08-30T11:59:46;21.60;99.60
15239;DHT22;7722;53.274;9.500;2022-08-30T12:02:42;21.60;99.50
15239;DHT22;7722;53.274;9.500;2022-08-30T12:08:41;21.90;99.20
15239;DHT22;7722;53.274;9.500;2022-08-30T12:14:42;22.00;98.70
15239;DHT22;7722;53.274;9.500;2022-08-30T12:17:24;22.30;98.60
15239;DHT22;7722;53.274;9.500;2022-08-30T12:20:20;22.60;98.50
15239;DHT22;7722;53.274;9.500;2022-08-30T12:22:48;22.30;97.90
15239;DHT22;7722;53.274;9.500;2022-08-30T12:25:20;22.30;98.40
15239;DHT22;7722;53.274;9.500;2022-08-30T12:27:49;22.60;98.70
15239;DHT22;7722;53.274;9.500;2022-08-30T12:30:24;22.60;97.20
15239;DHT22;7722;53.274;9.500;2022-08-30T12:32:52;22.70;97.10
15239;DHT22;7722;53.274;9.500;2022-08-30T12:35:22;23.00;96.50
15239;DHT22;7722;53.274;9.500;2022-08-30T12:37:58;23.00;96.40
15239;DHT22;7722;53.274;9.500;2022-08-30T12:40:27;23.30;96.00
15239;DHT22;7722;53.274;9.500;2022-08-30T12:42:58;23.80;95.50
15239;DHT22;7722;53.274;9.500;2022-08-30T12:45:29;23.40;94.30
15239;DHT22;7722;53.274;9.500;2022-08-30T12:48:00;23.50;94.20
15239;DHT22;7722;53.274;9.500;2022-08-30T12:50:32;24.30;94.10
15239;DHT22;7722;53.274;9.500;2022-08-30T12:53:02;24.50;93.50
15239;DHT22;7722;53.274;9.500;2022-08-30T12:55:32;24.40;93.10
15239;DHT22;7722;53.274;9.500;2022-08-30T12:58:02;25.40;92.60
15239;DHT22;7722;53.274;9.500;2022-08-30T13:00:32;26.10;90.90
15239;DHT22;7722;53.274;9.500;2022-08-30T13:03:01;26.20;90.20
15239;DHT22;7722;53.274;9.500;2022-08-30T13:05:44;26.30;88.80
15239;DHT22;7722;53.274;9.500;2022-08-30T13:08:17;25.70;89.50
15239;DHT22;7722;53.274;9.500;2022-08-30T13:10:57;25.00;90.20
15239;DHT22;7722;53.274;9.500;2022-08-30T13:13:28;24.70;90.30
15239;DHT22;7722;53.274;9.500;2022-08-30T13:16:10;24.10;91.00
15239;DHT22;7722;53.274;9.500;2022-08-30T13:18:38;23.60;91.70
15239;DHT22;7722;53.274;9.500;2022-08-30T13:21:10;23.40;91.80
15239;DHT22;7722;53.274;9.500;2022-08-30T13:23:37;23.10;91.90
15239;DHT22;7722;53.274;9.500;2022-08-30T13:26:05;22.80;92.00
15239;DHT22;7722;53.274;9.500;2022-08-30T13:28:42;22.60;92.10
15239;DHT22;7722;53.274;9.500;2022-08-30T13:31:11;22.60;91.90
15239;DHT22;7722;53.274;9.500;2022-08-30T13:33:37;22.50;91.90
15239;DHT22;7722;53.274;9.500;2022-08-30T13:36:05;22.40;92.60
15239;DHT22;7722;53.274;9.500;2022-08-30T13:38:32;22.30;93.00
15239;DHT22;7722;53.274;9.500;2022-08-30T13:40:59;22.30;93.30
15239;DHT22;7722;53.274;9.500;2022-08-30T13:43:26;22.30;93.30
15239;DHT22;7722;53.274;9.500;2022-08-30T13:45:53;22.30;93.50
15239;DHT22;7722;53.274;9.500;2022-08-30T13:48:21;22.30;93.10
15239;DHT22;7722;53.274;9.500;2022-08-30T13:50:48;22.50;93.00
15239;DHT22;7722;53.274;9.500;2022-08-30T13:53:15;22.60;93.00
15239;DHT22;7722;53.274;9.500;2022-08-30T13:55:43;22.60;92.30
15239;DHT22;7722;53.274;9.500;2022-08-30T13:58:10;22.70;92.40
15239;DHT22;7722;53.274;9.500;2022-08-30T14:00:37;23.00;92.10
15239;DHT22;7722;53.274;9.500;2022-08-30T14:03:04;23.00;91.50
15239;DHT22;7722;53.274;9.500;2022-08-30T14:05:35;23.00;91.70
15239;DHT22;7722;53.274;9.500;2022-08-30T14:08:02;22.90;91.70
15239;DHT22;7722;53.274;9.500;2022-08-30T14:10:30;22.80;92.00
15239;DHT22;7722;53.274;9.500;2022-08-30T14:12:57;22.70;92.60
15239;DHT22;7722;53.274;9.500;2022-08-30T14:15:25;22.70;92.80
15239;DHT22;7722;53.274;9.500;2022-08-30T14:17:52;22.50;92.60
15239;DHT22;7722;53.274;9.500;2022-08-30T14:20:19;22.60;93.10
15239;DHT22;7722;53.274;9.500;2022-08-30T14:22:47;22.30;94.10
15239;DHT22;7722;53.274;9.500;2022-08-30T14:25:15;22.30;94.10
15239;DHT22;7722;53.274;9.500;2022-08-30T14:27:42;22.40;94.40
15239;DHT22;7722;53.274;9.500;2022-08-30T14:30:10;22.30;94.40
15239;DHT22;7722;53.274;9.500;2022-08-30T14:32:37;22.10;94.50
15239;DHT22;7722;53.274;9.500;2022-08-30T14:35:04;22.40;94.30
15239;DHT22;7722;53.274;9.500;2022-08-30T14:37:32;22.10;94.40
15239;DHT22;7722;53.274;9.500;2022-08-30T14:40:00;22.00;94.60
15239;DHT22;7722;53.274;9.500;2022-08-30T14:42:27;21.90;94.50
15239;DHT22;7722;53.274;9.500;2022-08-30T14:44:54;22.10;94.10
15239;DHT22;7722;53.274;9.500;2022-08-30T14:47:22;22.00;94.30
15239;DHT22;7722;53.274;9.500;2022-08-30T14:49:48;22.10;94.30
15239;DHT22;7722;53.274;9.500;2022-08-30T14:52:15;21.90;94.40
15239;DHT22;7722;53.274;9.500;2022-08-30T14:54:42;21.90;94.60
15239;DHT22;7722;53.274;9.500;2022-08-30T14:57:11;21.90;94.70
15239;DHT22;7722;53.274;9.500;2022-08-30T14:59:38;22.00;94.40
15239;DHT22;7722;53.274;9.500;2022-08-30T15:02:05;22.00;94.60
15239;DHT22;7722;53.274;9.500;2022-08-30T15:04:32;22.20;94.30
15239;DHT22;7722;53.274;9.500;2022-08-30T15:06:59;22.40;93.80
15239;DHT22;7722;53.274;9.500;2022-08-30T15:09:26;22.30;94.00
15239;DHT22;7722;53.274;9.500;2022-08-30T15:11:55;22.30;93.80
15239;DHT22;7722;53.274;9.500;2022-08-30T15:14:23;22.20;93.90
15239;DHT22;7722;53.274;9.500;2022-08-30T15:16:53;22.10;93.60
15239;DHT22;7722;53.274;9.500;2022-08-30T15:19:20;21.90;93.50
15239;DHT22;7722;53.274;9.500;2022-08-30T15:21:47;22.00;93.60
15239;DHT22;7722;53.274;9.500;2022-08-30T15:24:16;22.30;93.10
15239;DHT22;7722;53.274;9.500;2022-08-30T15:26:43;22.30;93.00
15239;DHT22;7722;53.274;9.500;2022-08-30T15:29:12;22.60;93.10
15239;DHT22;7722;53.274;9.500;2022-08-30T15:31:42;22.70;92.60
15239;DHT22;7722;53.274;9.500;2022-08-30T15:34:11;22.70;92.70
15239;DHT22;7722;53.274;9.500;2022-08-30T15:36:40;22.80;92.40
15239;DHT22;7722;53.274;9.500;2022-08-30T15:39:07;22.60;92.20
15239;DHT22;7722;53.274;9.500;2022-08-30T15:41:34;22.50;92.00
15239;DHT22;7722;53.274;9.500;2022-08-30T15:44:02;22.70;92.20
15239;DHT22;7722;53.274;9.500;2022-08-30T15:46:31;22.70;92.60
15239;DHT22;7722;53.274;9.500;2022-08-30T15:49:02;22.80;92.30
15239;DHT22;7722;53.274;9.500;2022-08-30T15:51:30;22.70;92.00
15239;DHT22;7722;53.274;9.500;2022-08-30T15:53:57;22.70;92.00
15239;DHT22;7722;53.274;9.500;2022-08-30T15:56:24;22.40;91.80
15239;DHT22;7722;53.274;9.500;2022-08-30T15:58:51;22.30;91.70
15239;DHT22;7722;53.274;9.500;2022-08-30T16:01:19;22.20;92.40
15239;DHT22;7722;53.274;9.500;2022-08-30T16:03:46;22.30;92.20
15239;DHT22;7722;53.274;9.500;2022-08-30T16:06:16;22.30;91.40
15239;DHT22;7722;53.274;9.500;2022-08-30T16:08:44;22.30;91.20
15239;DHT22;7722;53.274;9.500;2022-08-30T16:11:13;22.50;91.50
15239;DHT22;7722;53.274;9.500;2022-08-30T16:13:40;22.70;91.40